Decoded Metar for UKDE (MOKRAYA in UKRAINE) (IATA:OZH) | Meteo·Mobile Aviation Weather
aviador You're here:

UKDE Decoded Metar

MOKRAYA in UKRAINE
Report Time2019-07-19 18:00:00
UTC Time2019-07-19 18:32:01
Flight Rules vfr VFR
Wind320° at 4 kt
W.Decomp.*RWY 02: 1.8 kt HW 3.6 kt LCW
Visibility9999 m
Phenomena:N/A
Clouds:N/A
Expected CloudBase > 3,600 ft AGL from Temp-Dew spread
CeilingNone
Temp21°C (ISA +7)
Dew Point12°C (57% RH)
AAT20.2°C
QNH1017 hPa
Density Alt1,214 ft
Elevation371 ft
Report Wrong Elevation
Raw Report
UKDE 191800Z 32002MPS CAVOK 21/12 Q1017 R02R/090070 NOSIG=

Extra information for UKDE:More info

Metar Taf Metar & Taf Last 4 Metars F.Rules Stats Wind Profile Meteogram Temp Stats Airport Information Weather charts Add Link Nearby VenuesMetar ALERT Operation Metar Decoded Social comments